Alturas, California
Current Conditions -  °F | °C
As of 4:55 AM on Friday 28 Nov 2014 (Local Time) from KAAT Reporting Station
Clear Clear  
Wind Chill: 29°   Ceiling: Unl
Heat Index: 29°   Visibility: 10mi
Dew Point: 25°   Wind: 3mph
Humidity: 85%   Direction: 320°NW
Pressure: 29.95"   Gusts: NA
Location:  41.49°N, 120.54°W
Report Text: KAAT 281255Z AUTO 32003KT 10SM CLR M02/M04 A2995 RMK AO2 SLP144 T10171039
Loading
Personal Weather Stations






























Interactive Weather Map New forecast layout! Learn more

10-Day Weather Forecast

Advertisements
Track Severe Weather on mobile